Missouri River (Missouri), Jefferson City (06910450)

StateMissouriLatestUnknown (49500 cfs)
RiverMissouri RiverRatingObservedEstimated
Updated2021-02-27 15:45 (26 minutes ago)Flood - The river is flooding. Obstacles can be treacherous or deadly. The river should be avoided at this stage for casual trips and definitely for the inexperienced. Trips should be attempted only with protective gear and equipment.Flood(none)(none)
Discharge49500 cfs (median: 65500 cfs)High - The river is high and potentially dangerous, especially for the young and / or inexperienced. Normal stream obstacles are sometimes difficult to navigate. Extended distances can be attempted, but canoe travel may not be advisable.High(none)(none)
Height7.73 feetGood - Conditions are ideal for a canoe or kayak. Boats typically will drag on fewer than one-quarter of riffles, if at all, and portages are unnecessary or rare. Normal float lengths can be attempted without a problem.Good(none)(none)
TrendSteady (rising over 24 hours)Low - River is low but can still be floated. Some riffles are okay but most come with significant dragging and might need a portage. Float lengths should be reduced to accommodate low flow, dragging, and portages.Low(none)(none)
USGSExternal icon USGS Site (External icon Google Maps)Poor - River is too low to float comfortably. Most or all riffles will drag or must be portaged and some obstacles (such as slick shelf rock) cause undue problems. Avoid the river at this stage for casual paddling trips.Poor(none)(none)

Trending Data

Plot Image

Trips for Missouri River (Missouri), Jefferson City (06910450)

DateStartEndDistanceConditionDischargeHeightFishingDetails

A total of 0 rows are displayed.

Condition Descriptions

Fishing Conditions

Fish Species

Notes

Classic Trip List

The classic River Trips application is still available for use. It is updated with the new system using a data retrofit. It is no longer maintained. The original River Trips application is no longer updated (as of 1 Dec 2016) but can be checked for errors or for the condition of the data before it was converted to the new system.

Gauge Data Table

ObservationHeightDischargeMaximum
Discharge
Minimum
Discharge
Mean
Discharge
P05P10P20P25P50
(Median)
P75P80P90P95
2021-02-27 15:45 7.73 49500 137000 (2019) 40000 (2015) 75200 44000 47500 65500 104000 120000
2021-02-27 14:45 7.72 49500 137000 (2019) 40000 (2015) 75200 44000 47500 65500 104000 120000
2021-02-27 13:45 7.75 49600 137000 (2019) 40000 (2015) 75200 44000 47500 65500 104000 120000
2021-02-27 12:45 7.75 49600 137000 (2019) 40000 (2015) 75200 44000 47500 65500 104000 120000
2021-02-27 11:45 7.73 49500 137000 (2019) 40000 (2015) 75200 44000 47500 65500 104000 120000
2021-02-27 10:45 7.73 49500 137000 (2019) 40000 (2015) 75200 44000 47500 65500 104000 120000
2021-02-27 09:45 7.67 49200 137000 (2019) 40000 (2015) 75200 44000 47500 65500 104000 120000
2021-02-27 08:45 7.71 49400 137000 (2019) 40000 (2015) 75200 44000 47500 65500 104000 120000
2021-02-27 07:45 7.69 49300 137000 (2019) 40000 (2015) 75200 44000 47500 65500 104000 120000
2021-02-27 06:45 7.70 49400 137000 (2019) 40000 (2015) 75200 44000 47500 65500 104000 120000
2021-02-27 05:45 7.66 49200 137000 (2019) 40000 (2015) 75200 44000 47500 65500 104000 120000
2021-02-27 04:45 7.63 49000 137000 (2019) 40000 (2015) 75200 44000 47500 65500 104000 120000
2021-02-27 03:45 7.62 48900 137000 (2019) 40000 (2015) 75200 44000 47500 65500 104000 120000
2021-02-27 02:45 7.59 48800 137000 (2019) 40000 (2015) 75200 44000 47500 65500 104000 120000
2021-02-27 01:45 7.51 48400 137000 (2019) 40000 (2015) 75200 44000 47500 65500 104000 120000
2021-02-27 00:45 7.47 48200 137000 (2019) 40000 (2015) 75200 44000 47500 65500 104000 120000
2021-02-26 23:45 7.41 47900 144000 (2019) 41400 (2015) 77700 44900 48000 67600 107000 124000
2021-02-26 22:45 7.29 47300 144000 (2019) 41400 (2015) 77700 44900 48000 67600 107000 124000
2021-02-26 21:45 7.22 46900 144000 (2019) 41400 (2015) 77700 44900 48000 67600 107000 124000
2021-02-26 20:45 7.09 46300 144000 (2019) 41400 (2015) 77700 44900 48000 67600 107000 124000
2021-02-26 19:45 7.03 46000 144000 (2019) 41400 (2015) 77700 44900 48000 67600 107000 124000
2021-02-26 18:45 6.96 45700 144000 (2019) 41400 (2015) 77700 44900 48000 67600 107000 124000
2021-02-26 17:45 6.86 45200 144000 (2019) 41400 (2015) 77700 44900 48000 67600 107000 124000
2021-02-26 16:45 6.74 44600 144000 (2019) 41400 (2015) 77700 44900 48000 67600 107000 124000
2021-02-26 15:45 6.64 44200 144000 (2019) 41400 (2015) 77700 44900 48000 67600 107000 124000
2021-02-26 14:45 6.56 43800 144000 (2019) 41400 (2015) 77700 44900 48000 67600 107000 124000
2021-02-26 13:45 6.46 43300 144000 (2019) 41400 (2015) 77700 44900 48000 67600 107000 124000
2021-02-26 12:45 6.36 42900 144000 (2019) 41400 (2015) 77700 44900 48000 67600 107000 124000
2021-02-26 11:45 6.26 42400 144000 (2019) 41400 (2015) 77700 44900 48000 67600 107000 124000
2021-02-26 10:45 6.21 42200 144000 (2019) 41400 (2015) 77700 44900 48000 67600 107000 124000
2021-02-26 09:45 6.17 42000 144000 (2019) 41400 (2015) 77700 44900 48000 67600 107000 124000
2021-02-26 08:45 6.08 41600 144000 (2019) 41400 (2015) 77700 44900 48000 67600 107000 124000
2021-02-26 07:45 6.06 41500 144000 (2019) 41400 (2015) 77700 44900 48000 67600 107000 124000
2021-02-26 06:45 6.04 41400 144000 (2019) 41400 (2015) 77700 44900 48000 67600 107000 124000
2021-02-26 05:45 5.98 41200 144000 (2019) 41400 (2015) 77700 44900 48000 67600 107000 124000
2021-02-26 04:45 5.95 41000 144000 (2019) 41400 (2015) 77700 44900 48000 67600 107000 124000
2021-02-26 03:45 5.96 41100 144000 (2019) 41400 (2015) 77700 44900 48000 67600 107000 124000
2021-02-26 02:45 5.95 41000 144000 (2019) 41400 (2015) 77700 44900 48000 67600 107000 124000
2021-02-26 01:45 5.95 41000 144000 (2019) 41400 (2015) 77700 44900 48000 67600 107000 124000
2021-02-26 00:45 5.98 41200 144000 (2019) 41400 (2015) 77700 44900 48000 67600 107000 124000
2021-02-25 23:45 6.00 41200 142000 (2019) 43100 (2015) 77500 46000 48500 68400 105000 122000
2021-02-25 22:45 6.07 41600 142000 (2019) 43100 (2015) 77500 46000 48500 68400 105000 122000
2021-02-25 21:45 6.12 41800 142000 (2019) 43100 (2015) 77500 46000 48500 68400 105000 122000
2021-02-25 20:45 6.14 41900 142000 (2019) 43100 (2015) 77500 46000 48500 68400 105000 122000
2021-02-25 19:45 6.21 42200 142000 (2019) 43100 (2015) 77500 46000 48500 68400 105000 122000
2021-02-25 18:45 6.26 42400 142000 (2019) 43100 (2015) 77500 46000 48500 68400 105000 122000
2021-02-25 17:45 6.34 42800 142000 (2019) 43100 (2015) 77500 46000 48500 68400 105000 122000
2021-02-25 16:45 6.41 43100 142000 (2019) 43100 (2015) 77500 46000 48500 68400 105000 122000
2021-02-25 15:45 6.47 43400 142000 (2019) 43100 (2015) 77500 46000 48500 68400 105000 122000
2021-02-25 14:45 6.56 43800 142000 (2019) 43100 (2015) 77500 46000 48500 68400 105000 122000
2021-02-25 13:45 6.68 44300 142000 (2019) 43100 (2015) 77500 46000 48500 68400 105000 122000
2021-02-25 12:45 6.75 44700 142000 (2019) 43100 (2015) 77500 46000 48500 68400 105000 122000
2021-02-25 11:45 6.81 45000 142000 (2019) 43100 (2015) 77500 46000 48500 68400 105000 122000
2021-02-25 10:45 6.90 45400 142000 (2019) 43100 (2015) 77500 46000 48500 68400 105000 122000
2021-02-25 09:45 6.99 45800 142000 (2019) 43100 (2015) 77500 46000 48500 68400 105000 122000
2021-02-25 08:45 7.09 46300 142000 (2019) 43100 (2015) 77500 46000 48500 68400 105000 122000
2021-02-25 07:45 7.19 46800 142000 (2019) 43100 (2015) 77500 46000 48500 68400 105000 122000
2021-02-25 06:45 7.27 47200 142000 (2019) 43100 (2015) 77500 46000 48500 68400 105000 122000
2021-02-25 05:45 7.36 47600 142000 (2019) 43100 (2015) 77500 46000 48500 68400 105000 122000
2021-02-25 04:45 7.45 48100 142000 (2019) 43100 (2015) 77500 46000 48500 68400 105000 122000
2021-02-25 03:45 7.53 48500 142000 (2019) 43100 (2015) 77500 46000 48500 68400 105000 122000
2021-02-25 02:45 7.62 48900 142000 (2019) 43100 (2015) 77500 46000 48500 68400 105000 122000
2021-02-25 01:45 7.69 49300 142000 (2019) 43100 (2015) 77500 46000 48500 68400 105000 122000
2021-02-25 00:45 7.78 49800 142000 (2019) 43100 (2015) 77500 46000 48500 68400 105000 122000
2021-02-24 23:45 7.86 50200 98400 (2019) 41800 (2015) 67700 43900 45800 66900 88400 93100
2021-02-24 22:45 7.95 50700 98400 (2019) 41800 (2015) 67700 43900 45800 66900 88400 93100
2021-02-24 21:45 8.08 51300 98400 (2019) 41800 (2015) 67700 43900 45800 66900 88400 93100
2021-02-24 20:45 8.03 51100 98400 (2019) 41800 (2015) 67700 43900 45800 66900 88400 93100
2021-02-24 19:45 8.04 51100 98400 (2019) 41800 (2015) 67700 43900 45800 66900 88400 93100
2021-02-24 18:45 8.01 51000 98400 (2019) 41800 (2015) 67700 43900 45800 66900 88400 93100
2021-02-24 17:45 7.98 50800 98400 (2019) 41800 (2015) 67700 43900 45800 66900 88400 93100
2021-02-24 16:45 7.95 50700 98400 (2019) 41800 (2015) 67700 43900 45800 66900 88400 93100
2021-02-24 15:45 7.91 50400 98400 (2019) 41800 (2015) 67700 43900 45800 66900 88400 93100
2021-02-24 14:45 7.88 50300 98400 (2019) 41800 (2015) 67700 43900 45800 66900 88400 93100
2021-02-24 13:45 7.88 50300 98400 (2019) 41800 (2015) 67700 43900 45800 66900 88400 93100
2021-02-24 12:45 7.85 50100 98400 (2019) 41800 (2015) 67700 43900 45800 66900 88400 93100
2021-02-24 11:45 7.87 50200 98400 (2019) 41800 (2015) 67700 43900 45800 66900 88400 93100
2021-02-24 10:45 7.89 50300 98400 (2019) 41800 (2015) 67700 43900 45800 66900 88400 93100
2021-02-24 09:45 7.95 50700 98400 (2019) 41800 (2015) 67700 43900 45800 66900 88400 93100
2021-02-24 08:45 7.96 50700 98400 (2019) 41800 (2015) 67700 43900 45800 66900 88400 93100
2021-02-24 07:45 8.02 51000 98400 (2019) 41800 (2015) 67700 43900 45800 66900 88400 93100
2021-02-24 06:45 8.11 55800 98400 (2019) 41800 (2015) 67700 43900 45800 66900 88400 93100
2021-02-24 05:45 8.21 47900 98400 (2019) 41800 (2015) 67700 43900 45800 66900 88400 93100
2021-02-24 04:45 8.29 48300 98400 (2019) 41800 (2015) 67700 43900 45800 66900 88400 93100
2021-02-24 03:45 8.41 48900 98400 (2019) 41800 (2015) 67700 43900 45800 66900 88400 93100
2021-02-24 02:45 8.52 49500 98400 (2019) 41800 (2015) 67700 43900 45800 66900 88400 93100
2021-02-24 01:45 8.59 49900 98400 (2019) 41800 (2015) 67700 43900 45800 66900 88400 93100
2021-02-24 00:45 8.67 50300 98400 (2019) 41800 (2015) 67700 43900 45800 66900 88400 93100
2021-02-23 23:45 8.81 51000 85100 (2020) 40900 (2015) 62200 44300 47300 61200 77900 81300
2021-02-23 22:45 8.93 51700 85100 (2020) 40900 (2015) 62200 44300 47300 61200 77900 81300
2021-02-23 21:45 9.04 52200 85100 (2020) 40900 (2015) 62200 44300 47300 61200 77900 81300
2021-02-23 20:45 9.16 52900 85100 (2020) 40900 (2015) 62200 44300 47300 61200 77900 81300
2021-02-23 19:45 9.25 53400 85100 (2020) 40900 (2015) 62200 44300 47300 61200 77900 81300
2021-02-23 18:45 9.41 54300 85100 (2020) 40900 (2015) 62200 44300 47300 61200 77900 81300
2021-02-23 17:45 9.55 55000 85100 (2020) 40900 (2015) 62200 44300 47300 61200 77900 81300
2021-02-23 16:45 9.67 55700 85100 (2020) 40900 (2015) 62200 44300 47300 61200 77900 81300
2021-02-23 15:45 9.75 56200 85100 (2020) 40900 (2015) 62200 44300 47300 61200 77900 81300
2021-02-23 14:45 9.96 57400 85100 (2020) 40900 (2015) 62200 44300 47300 61200 77900 81300
2021-02-23 13:45 10.02 57700 85100 (2020) 40900 (2015) 62200 44300 47300 61200 77900 81300
2021-02-23 12:45 10.05 57900 85100 (2020) 40900 (2015) 62200 44300 47300 61200 77900 81300
2021-02-23 11:45 9.76 56200 85100 (2020) 40900 (2015) 62200 44300 47300 61200 77900 81300
2021-02-23 10:45 9.70 55900 85100 (2020) 40900 (2015) 62200 44300 47300 61200 77900 81300
2021-02-23 09:45 9.50 54700 85100 (2020) 40900 (2015) 62200 44300 47300 61200 77900 81300
2021-02-23 08:45 9.21 53200 85100 (2020) 40900 (2015) 62200 44300 47300 61200 77900 81300
2021-02-23 07:45 9.03 52200 85100 (2020) 40900 (2015) 62200 44300 47300 61200 77900 81300
2021-02-23 06:45 8.88 51400 85100 (2020) 40900 (2015) 62200 44300 47300 61200 77900 81300
2021-02-23 05:45 8.83 51100 85100 (2020) 40900 (2015) 62200 44300 47300 61200 77900 81300
2021-02-23 04:45 8.28 48300 85100 (2020) 40900 (2015) 62200 44300 47300 61200 77900 81300
2021-02-23 03:45 7.34 43700 85100 (2020) 40900 (2015) 62200 44300 47300 61200 77900 81300
2021-02-23 02:45 4.38 31600 85100 (2020) 40900 (2015) 62200 44300 47300 61200 77900 81300
2021-02-23 01:45 1.25 21800 85100 (2020) 40900 (2015) 62200 44300 47300 61200 77900 81300
2021-02-23 00:45 1.19 21700 85100 (2020) 40900 (2015) 62200 44300 47300 61200 77900 81300
2021-02-22 23:45 1.12 21500 86800 (2020) 42500 (2015) 62700 45600 48300 62500 75600 80800
2021-02-22 22:45 1.04 21300 86800 (2020) 42500 (2015) 62700 45600 48300 62500 75600 80800
2021-02-22 21:45 0.94 21000 86800 (2020) 42500 (2015) 62700 45600 48300 62500 75600 80800
2021-02-22 20:45 0.85 20800 86800 (2020) 42500 (2015) 62700 45600 48300 62500 75600 80800
2021-02-22 19:45 0.76 20600 86800 (2020) 42500 (2015) 62700 45600 48300 62500 75600 80800
2021-02-22 18:45 0.67 20300 86800 (2020) 42500 (2015) 62700 45600 48300 62500 75600 80800
2021-02-22 17:45 0.97 21100 86800 (2020) 42500 (2015) 62700 45600 48300 62500 75600 80800
2021-02-22 16:45 0.89 20900 86800 (2020) 42500 (2015) 62700 45600 48300 62500 75600 80800
2021-02-22 15:45 0.94 21000 86800 (2020) 42500 (2015) 62700 45600 48300 62500 75600 80800
2021-02-22 14:45 0.92 21000 86800 (2020) 42500 (2015) 62700 45600 48300 62500 75600 80800
2021-02-22 13:45 0.90 20900 86800 (2020) 42500 (2015) 62700 45600 48300 62500 75600 80800
2021-02-22 12:45 0.89 20900 86800 (2020) 42500 (2015) 62700 45600 48300 62500 75600 80800
2021-02-22 11:45 0.86 20800 86800 (2020) 42500 (2015) 62700 45600 48300 62500 75600 80800
2021-02-22 10:45 0.85 20800 86800 (2020) 42500 (2015) 62700 45600 48300 62500 75600 80800
2021-02-22 09:45 0.82 20700 86800 (2020) 42500 (2015) 62700 45600 48300 62500 75600 80800
2021-02-22 08:45 0.81 20700 86800 (2020) 42500 (2015) 62700 45600 48300 62500 75600 80800
2021-02-22 07:45 0.79 20600 86800 (2020) 42500 (2015) 62700 45600 48300 62500 75600 80800
2021-02-22 06:45 0.76 20600 86800 (2020) 42500 (2015) 62700 45600 48300 62500 75600 80800
2021-02-22 05:45 0.74 20500 86800 (2020) 42500 (2015) 62700 45600 48300 62500 75600 80800
2021-02-22 04:45 0.71 20400 86800 (2020) 42500 (2015) 62700 45600 48300 62500 75600 80800
2021-02-22 03:45 0.67 20300 86800 (2020) 42500 (2015) 62700 45600 48300 62500 75600 80800
2021-02-22 02:45 0.62 20200 86800 (2020) 42500 (2015) 62700 45600 48300 62500 75600 80800
2021-02-22 01:45 0.61 20200 86800 (2020) 42500 (2015) 62700 45600 48300 62500 75600 80800
2021-02-22 00:45 0.57 20100 86800 (2020) 42500 (2015) 62700 45600 48300 62500 75600 80800
2021-02-21 23:45 0.48 19900 86100 (2020) 43700 (2015) 61200 45300 46700 59800 74000 79600
2021-02-21 22:45 0.50 19900 86100 (2020) 43700 (2015) 61200 45300 46700 59800 74000 79600
2021-02-21 21:45 0.46 19800 86100 (2020) 43700 (2015) 61200 45300 46700 59800 74000 79600
2021-02-21 20:45 0.43 19700 86100 (2020) 43700 (2015) 61200 45300 46700 59800 74000 79600
2021-02-21 19:45 0.40 19700 86100 (2020) 43700 (2015) 61200 45300 46700 59800 74000 79600
2021-02-21 18:45 0.35 19500 86100 (2020) 43700 (2015) 61200 45300 46700 59800 74000 79600
2021-02-21 17:45 0.34 19500 86100 (2020) 43700 (2015) 61200 45300 46700 59800 74000 79600
2021-02-21 16:45 0.29 19400 86100 (2020) 43700 (2015) 61200 45300 46700 59800 74000 79600
2021-02-21 15:45 0.28 19400 86100 (2020) 43700 (2015) 61200 45300 46700 59800 74000 79600
2021-02-21 14:45 0.24 19300 86100 (2020) 43700 (2015) 61200 45300 46700 59800 74000 79600
2021-02-21 13:45 0.21 19200 86100 (2020) 43700 (2015) 61200 45300 46700 59800 74000 79600
2021-02-21 12:45 0.18 19100 86100 (2020) 43700 (2015) 61200 45300 46700 59800 74000 79600
2021-02-21 11:45 0.19 19200 86100 (2020) 43700 (2015) 61200 45300 46700 59800 74000 79600
2021-02-21 10:45 0.17 19100 86100 (2020) 43700 (2015) 61200 45300 46700 59800 74000 79600
2021-02-21 09:45 0.17 19100 86100 (2020) 43700 (2015) 61200 45300 46700 59800 74000 79600
2021-02-21 08:45 -0.04 18600 86100 (2020) 43700 (2015) 61200 45300 46700 59800 74000 79600
2021-02-21 07:45 -0.01 18700 86100 (2020) 43700 (2015) 61200 45300 46700 59800 74000 79600
2021-02-21 06:45 0.15 19100 86100 (2020) 43700 (2015) 61200 45300 46700 59800 74000 79600
2021-02-21 05:45 0.02 18800 86100 (2020) 43700 (2015) 61200 45300 46700 59800 74000 79600
2021-02-21 04:45 0.05 18800 86100 (2020) 43700 (2015) 61200 45300 46700 59800 74000 79600
2021-02-21 03:45 0.02 18800 86100 (2020) 43700 (2015) 61200 45300 46700 59800 74000 79600
2021-02-21 02:45 0.06 18800 86100 (2020) 43700 (2015) 61200 45300 46700 59800 74000 79600
2021-02-21 01:45 0.08 18900 86100 (2020) 43700 (2015) 61200 45300 46700 59800 74000 79600
2021-02-21 00:45 0.06 18800 86100 (2020) 43700 (2015) 61200 45300 46700 59800 74000 79600
2021-02-20 23:45 0.04 18800 82000 (2020) 36300 (2018) 58400 39200 41800 59600 72500 76900
2021-02-20 22:45 0.05 18800 82000 (2020) 36300 (2018) 58400 39200 41800 59600 72500 76900
2021-02-20 21:45 0.08 18900 82000 (2020) 36300 (2018) 58400 39200 41800 59600 72500 76900
2021-02-20 20:45 0.05 18800 82000 (2020) 36300 (2018) 58400 39200 41800 59600 72500 76900
2021-02-20 19:45 -0.12 18400 82000 (2020) 36300 (2018) 58400 39200 41800 59600 72500 76900
2021-02-20 18:45 0.07 18900 82000 (2020) 36300 (2018) 58400 39200 41800 59600 72500 76900
2021-02-20 17:45 0.08 18900 82000 (2020) 36300 (2018) 58400 39200 41800 59600 72500 76900
2021-02-20 16:45 0.06 18800 82000 (2020) 36300 (2018) 58400 39200 41800 59600 72500 76900
2021-02-20 15:45 18700 82000 (2020) 36300 (2018) 58400 39200 41800 59600 72500 76900
2021-02-20 14:45 0.01 18700 82000 (2020) 36300 (2018) 58400 39200 41800 59600 72500 76900
2021-02-20 13:45 -0.28 18100 82000 (2020) 36300 (2018) 58400 39200 41800 59600 72500 76900
2021-02-20 12:45 -0.09 18500 82000 (2020) 36300 (2018) 58400 39200 41800 59600 72500 76900
2021-02-20 11:45 -0.04 18600 82000 (2020) 36300 (2018) 58400 39200 41800 59600 72500 76900
2021-02-20 10:45 -0.31 18000 82000 (2020) 36300 (2018) 58400 39200 41800 59600 72500 76900
2021-02-20 09:45 -0.31 18000 82000 (2020) 36300 (2018) 58400 39200 41800 59600 72500 76900
2021-02-20 08:45 0.01 18700 82000 (2020) 36300 (2018) 58400 39200 41800 59600 72500 76900
2021-02-20 07:45 -0.11 18400 82000 (2020) 36300 (2018) 58400 39200 41800 59600 72500 76900
2021-02-20 06:45 -0.15 18400 82000 (2020) 36300 (2018) 58400 39200 41800 59600 72500 76900
2021-02-20 05:45 -0.16 18300 82000 (2020) 36300 (2018) 58400 39200 41800 59600 72500 76900
2021-02-20 04:45 -0.07 18500 82000 (2020) 36300 (2018) 58400 39200 41800 59600 72500 76900
2021-02-20 03:45 -0.04 18600 82000 (2020) 36300 (2018) 58400 39200 41800 59600 72500 76900
2021-02-20 02:45 -0.20 18200 82000 (2020) 36300 (2018) 58400 39200 41800 59600 72500 76900
2021-02-20 01:45 -0.22 18200 82000 (2020) 36300 (2018) 58400 39200 41800 59600 72500 76900
2021-02-20 00:45 -0.34 17900 82000 (2020) 36300 (2018) 58400 39200 41800 59600 72500 76900

A total of 184 rows are displayed for years 2015 through 2020.